createdAt,value
2018-11-23T00:01:05.961Z,36.93
2018-11-23T00:03:35.219Z,66.13
2018-11-23T00:06:04.597Z,49.50
2018-11-23T00:08:51.761Z,46.83
2018-11-23T00:11:21.019Z,42.03
2018-11-23T00:13:55.676Z,36.13
2018-11-23T00:16:24.994Z,40.47
2018-11-23T00:18:54.342Z,42.70
2018-11-23T00:21:23.633Z,56.93
2018-11-23T00:23:53.053Z,39.80
2018-11-23T00:26:22.363Z,42.47
2018-11-23T00:28:51.784Z,50.47
2018-11-23T00:31:21.149Z,39.90
2018-11-23T00:33:50.444Z,35.80
2018-11-23T00:36:19.804Z,58.47
2018-11-23T00:38:49.157Z,45.40
2018-11-23T00:41:18.488Z,40.00
2018-11-23T00:43:47.759Z,47.97
2018-11-23T00:46:17.027Z,39.63
2018-11-23T00:48:46.312Z,36.50
2018-11-23T00:51:15.508Z,37.27
2018-11-23T00:53:44.763Z,49.90
2018-11-23T00:56:14.084Z,42.70
2018-11-23T00:58:43.394Z,42.77
2018-11-23T01:01:13.583Z,34.97
2018-11-23T01:03:42.943Z,42.27
2018-11-23T01:06:12.380Z,32.33
2018-11-23T01:08:41.701Z,45.50
2018-11-23T01:11:10.965Z,37.40
2018-11-23T01:13:40.148Z,26.97
2018-11-23T01:16:09.404Z,40.80
2018-11-23T01:18:38.663Z,47.40
2018-11-23T01:21:08.125Z,41.77
2018-11-23T01:23:37.477Z,35.63
2018-11-23T01:26:06.735Z,30.97
2018-11-23T01:28:36.077Z,29.07
2018-11-23T01:31:05.872Z,29.93
2018-11-23T01:33:36.005Z,28.67
2018-11-23T01:36:05.599Z,27.20
2018-11-23T01:38:35.024Z,27.90
2018-11-23T01:41:04.771Z,27.87
2018-11-23T01:43:34.120Z,41.60
2018-11-23T01:46:03.568Z,37.17
2018-11-23T01:48:33.803Z,35.30
2018-11-23T01:51:03.079Z,25.03
2018-11-23T01:53:32.502Z,38.97
2018-11-23T01:56:01.827Z,32.90
2018-11-23T01:58:31.246Z,39.37
2018-11-23T02:01:00.585Z,48.57
2018-11-23T02:03:29.987Z,34.70
2018-11-23T02:05:59.555Z,28.73
2018-11-23T02:08:28.873Z,27.83
2018-11-23T02:11:02.557Z,25.60
2018-11-23T02:13:31.944Z,23.80
2018-11-23T02:16:01.481Z,19.60
2018-11-23T02:18:30.803Z,23.70
2018-11-23T02:20:59.986Z,28.03
2018-11-23T02:23:29.139Z,23.17
2018-11-23T02:25:58.239Z,21.63
2018-11-23T02:28:27.308Z,26.43
2018-11-23T02:30:56.425Z,22.37
2018-11-23T02:33:25.504Z,21.67
2018-11-23T02:35:54.606Z,24.07
2018-11-23T02:38:23.687Z,27.23
2018-11-23T02:40:53.360Z,24.40
2018-11-23T02:43:22.504Z,23.30
2018-11-23T02:45:51.477Z,34.20
2018-11-23T02:48:20.500Z,35.43
2018-11-23T02:50:49.608Z,31.40
2018-11-23T02:53:18.758Z,29.63
2018-11-23T02:55:47.803Z,25.47
2018-11-23T02:58:17.921Z,29.83
2018-11-23T03:00:47.039Z,24.23
2018-11-23T03:03:15.983Z,28.67
2018-11-23T03:05:45.021Z,23.30
2018-11-23T03:11:25.480Z,30.57
2018-11-23T03:13:54.523Z,25.20
2018-11-23T03:16:23.952Z,24.70
2018-11-23T03:18:53.640Z,23.93
2018-11-23T03:21:23.044Z,27.50
2018-11-23T03:23:53.495Z,33.43
2018-11-23T03:26:23.666Z,25.57
2018-11-23T03:28:54.097Z,27.73
2018-11-23T03:31:24.644Z,40.70
2018-11-23T03:33:54.410Z,41.73
2018-11-23T03:36:24.736Z,30.27
2018-11-23T03:38:54.049Z,33.27
2018-11-23T03:41:23.497Z,27.40
2018-11-23T03:43:53.092Z,24.00
2018-11-23T03:46:22.772Z,30.03
2018-11-23T03:48:51.834Z,34.63
2018-11-23T03:51:20.854Z,24.47
2018-11-23T03:53:49.897Z,31.53
2018-11-23T03:56:18.940Z,30.13
2018-11-23T03:58:47.995Z,28.60
2018-11-23T04:01:16.980Z,31.77
2018-11-23T04:03:46.067Z,28.23
2018-11-23T04:06:15.113Z,25.30
2018-11-23T04:08:44.131Z,35.10
2018-11-23T04:11:13.138Z,33.17
2018-11-23T04:13:42.200Z,26.63
2018-11-23T04:16:11.213Z,26.00
2018-11-23T04:18:40.347Z,25.67
2018-11-23T04:21:09.319Z,35.53
2018-11-23T04:23:38.541Z,33.77
2018-11-23T04:26:07.814Z,35.23
2018-11-23T04:28:36.861Z,23.17
2018-11-23T04:31:06.257Z,28.30
2018-11-23T04:33:35.449Z,30.17
2018-11-23T04:36:04.653Z,24.30
2018-11-23T04:38:33.933Z,30.30
2018-11-23T04:41:03.057Z,31.30
2018-11-23T04:43:32.269Z,29.03
2018-11-23T04:46:01.436Z,22.97
2018-11-23T04:48:30.504Z,22.33
2018-11-23T04:50:59.604Z,28.17
2018-11-23T04:53:28.650Z,26.30
2018-11-23T04:55:57.715Z,22.93
2018-11-23T04:58:26.730Z,25.40
2018-11-23T05:00:55.724Z,37.67
2018-11-23T05:03:24.755Z,27.07
2018-11-23T05:05:53.776Z,22.33
2018-11-23T05:08:22.834Z,24.40
2018-11-23T05:10:52.115Z,24.27
2018-11-23T05:13:21.225Z,23.20
2018-11-23T05:15:50.260Z,28.53
2018-11-23T05:18:19.374Z,20.57
2018-11-23T05:20:48.573Z,23.57
2018-11-23T05:23:17.692Z,27.07
2018-11-23T05:25:46.758Z,23.93
2018-11-23T05:28:15.911Z,20.90
2018-11-23T05:30:46.304Z,21.00
2018-11-23T05:33:15.509Z,21.07
2018-11-23T05:35:44.563Z,24.97
2018-11-23T05:38:13.571Z,20.80
2018-11-23T05:40:42.649Z,25.03
2018-11-23T05:43:11.589Z,29.37
2018-11-23T05:45:40.599Z,21.07
2018-11-23T05:48:09.562Z,20.33
2018-11-23T05:50:38.621Z,24.30
2018-11-23T05:53:07.595Z,23.53
2018-11-23T05:55:36.651Z,23.47
2018-11-23T05:58:05.860Z,20.27
2018-11-23T06:00:34.886Z,19.23
2018-11-23T06:03:03.868Z,22.93
2018-11-23T06:05:33.093Z,18.43
2018-11-23T06:08:02.290Z,16.97
2018-11-23T06:10:31.327Z,19.07
2018-11-23T06:13:00.632Z,16.73
2018-11-23T06:15:29.752Z,20.80
2018-11-23T06:17:58.715Z,21.07
2018-11-23T06:20:27.898Z,25.10
2018-11-23T06:22:57.572Z,20.90
2018-11-23T06:25:36.471Z,18.63
2018-11-23T06:28:06.677Z,20.60
2018-11-23T06:30:56.193Z,17.27
2018-11-23T06:33:38.751Z,21.70
2018-11-23T06:36:30.244Z,20.60
2018-11-23T06:39:26.974Z,17.73
2018-11-23T06:41:55.871Z,19.03
2018-11-23T06:44:29.814Z,19.40
2018-11-23T06:46:58.724Z,18.70
2018-11-23T06:49:27.632Z,18.90
2018-11-23T06:51:56.544Z,21.97
2018-11-23T06:54:25.511Z,21.87
2018-11-23T06:56:54.436Z,22.83
2018-11-23T06:59:23.348Z,22.37
2018-11-23T07:01:52.424Z,20.10
2018-11-23T07:04:21.357Z,18.30
2018-11-23T07:06:50.535Z,18.73
2018-11-23T07:09:19.570Z,16.83
2018-11-23T07:11:48.517Z,21.07
2018-11-23T07:14:17.436Z,21.23
2018-11-23T07:16:46.413Z,18.77
2018-11-23T07:19:15.766Z,21.27
2018-11-23T07:21:45.123Z,18.57
2018-11-23T07:24:14.391Z,21.17
2018-11-23T07:26:43.688Z,20.00
2018-11-23T07:29:12.684Z,20.53
2018-11-23T07:31:45.306Z,18.93
2018-11-23T07:34:14.218Z,20.97
2018-11-23T07:36:43.141Z,19.13
2018-11-23T07:41:30.746Z,17.23
2018-11-23T07:43:59.664Z,17.53
2018-11-23T07:46:28.613Z,19.63
2018-11-23T07:48:57.550Z,21.47
2018-11-23T07:51:26.451Z,24.73
2018-11-23T07:53:55.400Z,31.10
2018-11-23T07:56:24.324Z,24.00
2018-11-23T07:58:53.303Z,25.97
2018-11-23T08:01:22.179Z,24.23
2018-11-23T08:03:51.546Z,21.90
2018-11-23T08:06:20.455Z,21.20
2018-11-23T08:08:49.356Z,22.80
2018-11-23T08:11:18.259Z,20.03
2018-11-23T08:13:47.152Z,21.80
2018-11-23T08:16:16.024Z,18.83
2018-11-23T08:18:44.904Z,18.57
2018-11-23T08:21:13.772Z,17.67
2018-11-23T08:23:42.668Z,18.70
2018-11-23T08:26:11.592Z,17.53
2018-11-23T08:28:40.484Z,18.03
2018-11-23T08:31:09.374Z,16.03
2018-11-23T08:33:38.263Z,17.47
2018-11-23T08:36:07.407Z,18.17
2018-11-23T08:38:36.346Z,18.37
2018-11-23T08:41:05.600Z,16.20
2018-11-23T08:43:34.539Z,16.70
2018-11-23T08:46:03.412Z,16.87
2018-11-23T08:48:32.308Z,17.30
2018-11-23T08:51:01.196Z,14.83
2018-11-23T08:53:32.788Z,14.37
2018-11-23T08:56:02.230Z,15.57
2018-11-23T08:58:31.115Z,15.93
2018-11-23T09:01:00.000Z,17.60
2018-11-23T09:03:28.860Z,16.63
2018-11-23T09:05:57.743Z,15.23
2018-11-23T09:08:26.644Z,15.43
2018-11-23T09:10:55.532Z,15.03
2018-11-23T09:13:24.396Z,14.53
2018-11-23T09:15:53.267Z,13.57
2018-11-23T09:18:31.803Z,13.60
2018-11-23T09:21:00.938Z,13.17
2018-11-23T09:23:30.096Z,13.60
2018-11-23T09:25:59.282Z,13.57
2018-11-23T09:28:28.394Z,14.03
2018-11-23T09:30:57.275Z,13.30
2018-11-23T09:33:26.575Z,12.77
2018-11-23T09:35:55.478Z,15.33
2018-11-23T09:38:24.322Z,14.97
2018-11-23T09:40:53.188Z,14.53
2018-11-23T09:43:22.071Z,15.03
2018-11-23T09:45:50.968Z,14.03
2018-11-23T09:48:19.955Z,14.63
2018-11-23T09:50:49.492Z,15.53
2018-11-23T09:53:18.811Z,14.70
2018-11-23T09:55:47.886Z,13.90
2018-11-23T09:58:16.814Z,14.67
2018-11-23T10:00:45.909Z,13.20
2018-11-23T10:03:14.834Z,14.63
2018-11-23T10:05:43.843Z,15.57
2018-11-23T10:08:12.732Z,17.07
2018-11-23T10:10:41.598Z,15.47
2018-11-23T10:13:10.482Z,16.00
2018-11-23T10:18:18.444Z,21.17
2018-11-23T10:20:48.138Z,15.47
2018-11-23T10:23:17.193Z,15.03
2018-11-23T10:25:46.942Z,14.93
2018-11-23T10:28:15.959Z,14.43
2018-11-23T10:30:45.050Z,16.03
2018-11-23T10:33:14.106Z,14.10
2018-11-23T10:35:43.106Z,14.83
2018-11-23T10:38:12.191Z,14.70
2018-11-23T10:40:41.487Z,15.30
2018-11-23T10:43:10.911Z,15.37
2018-11-23T10:45:40.019Z,15.90
2018-11-23T10:48:09.877Z,16.67
2018-11-23T10:50:40.640Z,16.20
2018-11-23T10:53:09.879Z,14.23
2018-11-23T10:55:38.952Z,16.77
2018-11-23T10:58:07.895Z,16.03
2018-11-23T11:00:42.678Z,16.50
2018-11-23T11:03:17.090Z,16.03
2018-11-23T11:05:51.680Z,17.63
2018-11-23T11:08:20.910Z,17.47
2018-11-23T11:10:50.242Z,14.67
2018-11-23T11:13:19.418Z,17.27
2018-11-23T11:15:48.631Z,16.17
2018-11-23T11:18:17.766Z,17.20
2018-11-23T11:20:46.864Z,16.60
2018-11-23T11:23:15.908Z,17.30
2018-11-23T11:25:45.055Z,17.00
2018-11-23T11:28:14.115Z,18.93
2018-11-23T11:30:43.215Z,17.27
2018-11-23T11:33:12.496Z,19.37
2018-11-23T11:35:41.503Z,16.77
2018-11-23T11:38:10.700Z,16.73
2018-11-23T11:40:39.631Z,17.93
2018-11-23T11:43:08.590Z,16.77
2018-11-23T11:45:37.626Z,20.27
2018-11-23T11:48:06.709Z,17.97
2018-11-23T11:50:35.714Z,20.67
2018-11-23T11:53:04.757Z,21.03
2018-11-23T11:55:33.769Z,20.17
2018-11-23T11:58:02.743Z,23.40
2018-11-23T12:00:31.779Z,22.00
2018-11-23T12:03:00.732Z,22.07
2018-11-23T12:05:29.841Z,24.37
2018-11-23T12:07:58.968Z,20.63
2018-11-23T12:10:27.919Z,20.13
2018-11-23T12:12:57.007Z,20.10
2018-11-23T12:15:26.063Z,19.80
2018-11-23T12:17:55.035Z,22.17
2018-11-23T12:20:24.856Z,20.60
2018-11-23T12:22:54.026Z,20.07
2018-11-23T12:25:23.423Z,19.33
2018-11-23T12:27:52.425Z,22.13
2018-11-23T12:30:22.051Z,19.93
2018-11-23T12:32:51.867Z,19.77
2018-11-23T12:35:21.419Z,21.13
2018-11-23T12:37:50.943Z,20.40
2018-11-23T12:40:20.595Z,18.97
2018-11-23T12:42:49.948Z,20.27
2018-11-23T12:45:20.442Z,19.00
2018-11-23T12:47:49.443Z,20.57
2018-11-23T12:50:20.031Z,21.97
2018-11-23T12:52:48.991Z,19.83
2018-11-23T12:55:18.807Z,18.73
2018-11-23T12:57:47.877Z,22.43
2018-11-23T13:00:28.175Z,21.40
2018-11-23T13:02:58.599Z,19.90
2018-11-23T13:05:28.542Z,23.37
2018-11-23T13:07:58.845Z,23.70
2018-11-23T13:10:28.377Z,23.00
2018-11-23T13:12:58.291Z,24.23
2018-11-23T13:15:28.536Z,21.23
2018-11-23T13:17:58.431Z,22.33
2018-11-23T13:20:27.668Z,22.03
2018-11-23T13:22:56.833Z,24.87
2018-11-23T13:25:27.613Z,21.87
2018-11-23T13:27:56.979Z,24.53
2018-11-23T13:30:27.608Z,23.20
2018-11-23T13:32:56.691Z,25.57
2018-11-23T13:35:25.648Z,23.73
2018-11-23T13:37:54.661Z,23.23
2018-11-23T13:40:24.956Z,21.60
2018-11-23T13:42:54.982Z,21.73
2018-11-23T13:45:25.321Z,21.33
2018-11-23T13:47:54.239Z,22.77
2018-11-23T13:50:23.963Z,20.40
2018-11-23T13:52:54.666Z,24.27
2018-11-23T13:55:23.611Z,21.17
2018-11-23T13:57:53.067Z,22.43
2018-11-23T14:00:24.325Z,21.93
2018-11-23T14:02:53.311Z,50.90
2018-11-23T14:05:23.515Z,20.80
2018-11-23T14:07:53.732Z,20.40
2018-11-23T14:10:24.024Z,21.40
2018-11-23T14:12:53.154Z,20.47
2018-11-23T14:15:24.312Z,20.33
2018-11-23T14:17:54.340Z,20.93
2018-11-23T14:20:24.318Z,21.10
2018-11-23T14:22:53.396Z,21.03
2018-11-23T14:25:23.750Z,21.47
2018-11-23T14:27:53.157Z,22.03
2018-11-23T14:30:23.729Z,21.53
2018-11-23T14:32:54.243Z,21.73
2018-11-23T14:35:27.725Z,20.57
2018-11-23T14:37:57.448Z,20.80
2018-11-23T14:40:26.667Z,21.47
2018-11-23T14:42:56.158Z,20.77
2018-11-23T14:45:28.423Z,21.93
2018-11-23T14:47:58.563Z,20.97
2018-11-23T14:50:29.096Z,21.30
2018-11-23T14:52:58.607Z,20.50
2018-11-23T14:55:28.479Z,19.37
2018-11-23T14:57:57.977Z,20.93
2018-11-23T15:00:31.355Z,20.47
2018-11-23T15:03:01.415Z,21.30
2018-11-23T15:05:30.676Z,21.43
2018-11-23T15:07:59.842Z,20.50
2018-11-23T15:10:30.060Z,21.40
2018-11-23T15:13:00.295Z,20.90
2018-11-23T15:15:31.716Z,21.37
2018-11-23T15:18:01.082Z,21.57
2018-11-23T15:20:34.747Z,21.37
2018-11-23T15:23:08.542Z,20.47
2018-11-23T15:25:38.035Z,20.80
2018-11-23T15:28:09.360Z,22.97
2018-11-23T15:30:39.220Z,22.37
2018-11-23T15:33:09.383Z,22.30
2018-11-23T15:35:38.911Z,19.43
2018-11-23T15:38:10.312Z,21.13
2018-11-23T15:40:39.082Z,23.43
2018-11-23T15:43:09.860Z,23.90
2018-11-23T15:45:38.824Z,21.27
2018-11-23T15:48:09.159Z,21.83
2018-11-23T15:50:39.560Z,23.90
2018-11-23T15:53:10.006Z,23.73
2018-11-23T15:55:39.624Z,21.33
2018-11-23T15:58:10.532Z,21.63
2018-11-23T16:00:41.727Z,20.87
2018-11-23T16:03:12.063Z,19.97
2018-11-23T16:05:41.131Z,21.67
2018-11-23T16:08:13.513Z,20.27
2018-11-23T16:10:42.864Z,21.62
2018-11-23T16:13:12.300Z,21.00
2018-11-23T16:15:41.266Z,21.67
2018-11-23T16:18:16.801Z,22.80
2018-11-23T16:20:46.575Z,20.70
2018-11-23T16:23:19.228Z,23.30
2018-11-23T16:25:49.438Z,23.83
2018-11-23T16:28:22.702Z,23.57
2018-11-23T16:30:51.868Z,22.90
2018-11-23T16:33:22.288Z,22.93
2018-11-23T16:35:51.490Z,23.83
2018-11-23T16:38:22.124Z,23.63
2018-11-23T16:40:54.439Z,22.47
2018-11-23T16:43:23.530Z,24.13
2018-11-23T16:45:52.620Z,23.67
2018-11-23T16:48:22.314Z,22.93
2018-11-23T16:50:51.449Z,24.73
2018-11-23T16:53:20.487Z,25.73
2018-11-23T16:55:49.611Z,25.53
2018-11-23T16:58:19.970Z,26.20
2018-11-23T17:00:49.062Z,26.87
2018-11-23T17:03:19.960Z,26.17
2018-11-23T17:05:50.632Z,27.17
2018-11-23T17:08:19.892Z,27.17
2018-11-23T17:10:48.993Z,25.87
2018-11-23T17:13:18.133Z,25.60
2018-11-23T17:15:47.220Z,25.27
2018-11-23T17:18:16.216Z,23.63
2018-11-23T17:20:45.174Z,25.37
2018-11-23T17:23:14.400Z,23.97
2018-11-23T17:25:43.406Z,20.67
2018-11-23T17:28:12.829Z,19.43
2018-11-23T17:30:41.720Z,19.77
2018-11-23T17:33:11.187Z,18.53
2018-11-23T17:35:40.302Z,21.00
2018-11-23T17:38:09.494Z,19.50
2018-11-23T17:40:39.911Z,20.17
2018-11-23T17:43:09.594Z,18.17
2018-11-23T17:45:38.770Z,18.80
2018-11-23T17:48:07.776Z,18.03
2018-11-23T17:50:37.747Z,18.53
2018-11-23T17:53:06.731Z,17.30
2018-11-23T17:55:35.715Z,19.57
2018-11-23T17:58:05.065Z,18.17
2018-11-23T18:00:39.098Z,18.97
2018-11-23T18:03:04.638Z,20.77
2018-11-23T18:05:34.361Z,19.70
2018-11-23T18:08:03.759Z,18.77
2018-11-23T18:10:33.827Z,19.97
2018-11-23T18:13:03.446Z,18.13
2018-11-23T18:15:33.615Z,17.87
2018-11-23T18:18:03.495Z,20.80
2018-11-23T18:20:32.932Z,19.47
2018-11-23T18:23:02.978Z,18.83
2018-11-23T18:25:33.787Z,19.27
2018-11-23T18:28:02.807Z,19.03
2018-11-23T18:30:32.886Z,17.90
2018-11-23T18:33:03.035Z,18.07
2018-11-23T18:35:32.188Z,19.33
2018-11-23T18:38:01.256Z,18.33
2018-11-23T18:40:36.958Z,20.13
2018-11-23T18:42:59.307Z,17.60
2018-11-23T18:45:28.292Z,18.40
2018-11-23T18:47:57.412Z,18.43
2018-11-23T18:50:26.564Z,19.03
2018-11-23T18:52:55.621Z,17.77
2018-11-23T18:55:24.855Z,19.27
2018-11-23T18:57:54.160Z,19.80
2018-11-23T19:00:23.341Z,20.23
2018-11-23T19:02:52.353Z,19.50
2018-11-23T19:05:22.913Z,19.20
2018-11-23T19:07:51.975Z,18.50
2018-11-23T19:10:20.986Z,19.43
2018-11-23T19:12:49.955Z,19.00
2018-11-23T19:15:25.130Z,17.20
2018-11-23T19:17:48.360Z,16.87
2018-11-23T19:20:19.312Z,19.33
2018-11-23T19:22:49.521Z,18.13
2018-11-23T19:25:18.624Z,18.23
2018-11-23T19:27:47.735Z,20.07
2018-11-23T19:30:18.940Z,19.13
2018-11-23T19:32:48.165Z,19.50
2018-11-23T19:35:17.255Z,20.70
2018-11-23T19:37:46.243Z,19.53
2018-11-23T19:40:16.065Z,19.53
2018-11-23T19:42:45.692Z,20.57
2018-11-23T19:45:17.357Z,22.63
2018-11-23T19:47:46.532Z,21.37
2018-11-23T19:50:17.678Z,20.90
2018-11-23T19:52:46.889Z,20.00
2018-11-23T19:55:16.783Z,23.43
2018-11-23T19:57:45.799Z,23.60
2018-11-23T20:00:17.000Z,23.57
2018-11-23T20:02:46.022Z,20.87
2018-11-23T20:05:15.120Z,22.07
2018-11-23T20:07:44.517Z,22.97
2018-11-23T20:10:15.572Z,23.30
2018-11-23T20:12:45.091Z,23.73
2018-11-23T20:15:15.445Z,23.70
2018-11-23T20:17:44.501Z,25.17
2018-11-23T20:20:14.511Z,25.43
2018-11-23T20:22:43.598Z,23.80
2018-11-23T20:25:13.536Z,23.37
2018-11-23T20:27:42.539Z,23.97
2018-11-23T20:30:15.015Z,24.57
2018-11-23T20:32:43.960Z,23.30
2018-11-23T20:35:17.305Z,21.87
2018-11-23T20:37:46.271Z,23.93
2018-11-23T20:40:18.378Z,23.47
2018-11-23T20:42:47.302Z,24.73
2018-11-23T20:45:16.291Z,23.20
2018-11-23T20:47:45.280Z,25.73
2018-11-23T20:50:15.208Z,25.13
2018-11-23T20:52:44.184Z,24.03
2018-11-23T20:55:14.369Z,24.60
2018-11-23T20:57:43.264Z,25.93
2018-11-23T21:00:16.205Z,24.47
2018-11-23T21:02:45.673Z,22.93
2018-11-23T21:05:15.631Z,24.40
2018-11-23T21:07:44.556Z,23.83
2018-11-23T21:10:20.464Z,23.97
2018-11-23T21:12:44.711Z,25.90
2018-11-23T21:15:19.838Z,24.33
2018-11-23T21:17:48.768Z,23.73
2018-11-23T21:20:17.833Z,22.63
2018-11-23T21:22:46.703Z,22.73
2018-11-23T21:25:15.605Z,22.00
2018-11-23T21:27:44.535Z,23.50
2018-11-23T21:30:15.827Z,21.73
2018-11-23T21:32:44.792Z,21.60
2018-11-23T21:35:13.846Z,22.63
2018-11-23T21:37:42.731Z,20.87
2018-11-23T21:40:12.754Z,22.43
2018-11-23T21:42:41.687Z,22.43
2018-11-23T21:45:18.261Z,22.33
2018-11-23T21:47:47.181Z,24.77
2018-11-23T21:50:25.578Z,20.33
2018-11-23T21:52:49.855Z,24.53
2018-11-23T21:55:22.648Z,23.00
2018-11-23T21:57:52.361Z,22.63
2018-11-23T22:00:21.376Z,23.27
2018-11-23T22:02:50.261Z,22.67
2018-11-23T22:05:19.286Z,23.37
2018-11-23T22:07:48.147Z,22.50
2018-11-23T22:10:18.734Z,24.37
2018-11-23T22:12:47.696Z,22.77
2018-11-23T22:15:20.813Z,23.93
2018-11-23T22:17:50.622Z,22.90
2018-11-23T22:20:20.574Z,23.00
2018-11-23T22:22:49.620Z,22.63
2018-11-23T22:25:19.740Z,25.10
2018-11-23T22:27:48.683Z,23.37
2018-11-23T22:30:19.027Z,22.73
2018-11-23T22:32:47.950Z,23.97
2018-11-23T22:35:16.919Z,22.40
2018-11-23T22:37:45.955Z,22.70
2018-11-23T22:40:16.025Z,23.53
2018-11-23T22:42:46.318Z,24.70
2018-11-23T22:45:16.099Z,22.37
2018-11-23T22:47:45.085Z,23.73
2018-11-23T22:50:19.175Z,21.70
2018-11-23T22:52:48.161Z,22.13
2018-11-23T22:55:17.855Z,21.30
2018-11-23T22:57:46.855Z,24.30
2018-11-23T23:00:26.328Z,21.73
2018-11-23T23:02:55.363Z,22.67
2018-11-23T23:05:24.636Z,22.70
2018-11-23T23:12:52.610Z,21.30
2018-11-23T23:15:21.651Z,20.20
2018-11-23T23:17:50.523Z,20.73
2018-11-23T23:20:20.686Z,19.90
2018-11-23T23:22:49.569Z,19.80
2018-11-23T23:25:18.547Z,20.53
2018-11-23T23:27:47.500Z,19.23
2018-11-23T23:30:18.071Z,19.60
2018-11-23T23:32:48.007Z,21.80
2018-11-23T23:35:17.385Z,20.47
2018-11-23T23:37:46.368Z,20.53
2018-11-23T23:40:16.416Z,21.73
2018-11-23T23:42:45.683Z,21.07
2018-11-23T23:45:15.610Z,21.07
2018-11-23T23:47:44.591Z,21.30
2018-11-23T23:50:17.512Z,22.13
2018-11-23T23:52:46.443Z,21.07
2018-11-23T23:55:15.349Z,21.67
2018-11-23T23:57:45.438Z,21.27
